Time;durP1;ratioP1;P1;durP2;ratioP2;P2;SDS_P1;SDS_P2;PMS_P1;PMS_P2;Temp;Humidity;BMP_temperature;BMP_pressure;BME280_temperature;BME280_humidity;BME280_pressure;Samples;Min_cycle;Max_cycle;Signal;HPM_P1;HPM_P2
2023/06/20 00:09:57;;;;;;;;;;;;;;;;;;;;;
2023/06/20 00:17:36;;;;;;;;;;;;;;;;;;;;;
2023/06/20 00:21:13;;;;;;;;;;;;;;;;;;;;;
2023/06/20 00:24:38;;;;;;;;;;;;;;;;;;;;;
2023/06/20 00:43:08;;;;;;;;;;;;;;;;;;;;;
2023/06/20 00:58:35;;;;;;;;;;;;;;;;;;;;;
2023/06/20 01:09:45;;;;;;;;;;;;;;;;;;;;;
2023/06/20 01:13:39;;;;;;;;;;;;;;;;;;;;;
2023/06/20 01:27:50;;;;;;;18.63;11.77;;;;;;;13.58;56.09;101432.59;4841422;29;20299;-69
2023/06/20 01:35:29;;;;;;;21.27;12.25;;;;;;;13.47;56.29;101423.41;4929325;28;20551;-65
2023/06/20 01:46:00;;;;;;;;;;;;;;;;;;;;;
2023/06/20 01:49:48;;;;;;;23.73;13.60;;;;;;;13.53;56.19;101428.38;4912486;28;22305;-72
2023/06/20 01:53:32;;;;;;;26.58;14.18;;;;;;;13.50;56.27;101430.28;4911902;28;20383;-72
2023/06/20 02:08:37;;;;;;;;;;;;;;;;;;;;;
2023/06/20 02:15:51;;;;;;;;;;;;;;;;;;;;;
2023/06/20 02:19:29;;;;;;;22.23;14.35;;;;;;;13.77;55.26;101415.13;4813496;29;20060;-68
2023/06/20 02:23:10;;;;;;;;;;;;;;;;;;;;;
2023/06/20 02:37:53;;;;;;;;;;;;;;;;;;;;;
2023/06/20 02:41:47;;;;;;;;;;;;;;;;;;;;;
2023/06/20 02:52:54;;;;;;;;;;;;;;;;;;;;;
2023/06/20 02:59:49;;;;;;;23.98;15.45;;;;;;;13.79;57.12;101401.91;4973080;28;20522;-72
2023/06/20 03:06:47;;;;;;;;;;;;;;;;;;;;;
2023/06/20 03:18:03;;;;;;;;;;;;;;;;;;;;;
2023/06/20 03:21:18;;;;;;;;;;;;;;;;;;;;;
2023/06/20 03:28:30;;;;;;;;;;;;;;;;;;;;;
2023/06/20 03:35:50;;;;;;;28.15;16.67;;;;;;;13.72;56.79;101393.47;4844295;29;20291;-70
2023/06/20 03:57:10;;;;;;;;;;;;;;;;;;;;;
2023/06/20 04:01:00;;;;;;;;;;;;;;;;;;;;;
2023/06/20 04:22:46;;;;;;;27.58;14.60;;;;;;;14.74;54.08;101413.22;4904045;29;20532;-73
2023/06/20 04:25:15;;;;;;;23.45;14.52;;;;;;;14.76;54.78;101406.09;4921551;28;20051;-74
2023/06/20 04:27:43;;;;;;;24.45;13.90;;;;;;;14.86;55.12;101406.53;4944674;28;20129;-75
2023/06/20 04:30:09;;;;;;;22.13;13.60;;;;;;;15.03;54.59;101403.88;4974658;28;20099;-72
2023/06/20 04:32:37;;;;;;;26.25;13.90;;;;;;;15.26;53.98;101401.88;4972310;28;20045;-71
2023/06/20 04:35:05;;;;;;;22.80;13.32;;;;;;;15.48;53.48;101410.41;4977039;28;20849;-72
2023/06/20 04:37:30;;;;;;;20.23;12.15;;;;;;;15.58;53.02;101405.47;4999169;28;20034;-73
2023/06/20 04:39:58;;;;;;;21.98;14.13;;;;;;;15.78;52.84;101401.78;4983289;28;20030;-72
2023/06/20 04:42:25;;;;;;;22.58;13.32;;;;;;;15.81;52.44;101396.34;4983361;28;20092;-72
2023/06/20 04:44:51;;;;;;;22.20;12.05;;;;;;;15.86;52.32;101398.72;4983979;28;20411;-71
2023/06/20 04:47:16;;;;;;;21.70;13.25;;;;;;;16.07;51.92;101391.47;5001598;22;20204;-77
2023/06/20 04:49:43;;;;;;;19.10;11.90;;;;;;;16.12;51.63;101394.72;4985678;28;20041;-77
2023/06/20 04:52:08;;;;;;;18.17;11.38;;;;;;;16.21;51.26;101395.03;4980080;28;20050;-78
2023/06/20 04:54:34;;;;;;;16.90;11.63;;;;;;;16.38;50.12;101388.81;4986947;28;20029;-78
2023/06/20 04:57:02;;;;;;;17.92;11.18;;;;;;;16.46;51.01;101392.81;4996138;28;20069;-78
2023/06/20 04:59:27;;;;;;;16.73;11.32;;;;;;;16.57;50.52;101399.16;5005041;28;20577;-78
2023/06/20 05:01:55;;;;;;;18.10;11.75;;;;;;;16.63;49.86;101405.91;5006333;28;20071;-78
2023/06/20 05:04:21;;;;;;;15.23;10.52;;;;;;;16.59;49.55;101402.56;5004905;28;20325;-79
2023/06/20 05:06:47;;;;;;;16.23;10.73;;;;;;;16.72;50.38;101393.97;5010493;28;20216;-75
2023/06/20 05:09:13;;;;;;;12.88;9.77;;;;;;;16.96;49.84;101397.84;5001618;28;20103;-75
2023/06/20 05:11:40;;;;;;;17.15;10.85;;;;;;;16.97;49.25;101403.97;5004690;28;20462;-75
2023/06/20 05:14:06;;;;;;;20.77;12.50;;;;;;;16.89;49.56;101400.91;4989458;28;20033;-78
2023/06/20 05:16:31;;;;;;;16.35;10.38;;;;;;;16.87;49.38;101400.16;4989119;28;20033;-75
2023/06/20 05:18:57;;;;;;;16.92;11.05;;;;;;;16.98;49.16;101401.25;5005088;28;20028;-75
2023/06/20 05:21:22;;;;;;;17.73;10.25;;;;;;;17.18;48.80;101402.72;5004423;28;20037;-75
2023/06/20 05:23:48;;;;;;;14.77;10.13;;;;;;;17.30;48.66;101397.63;5000540;28;20029;-74
2023/06/20 05:26:14;;;;;;;18.42;11.20;;;;;;;17.31;48.16;101401.97;4990443;28;20444;-73
2023/06/20 05:28:40;;;;;;;22.27;12.20;;;;;;;17.21;47.97;101402.50;5004412;28;20128;-75
2023/06/20 05:31:05;;;;;;;17.08;11.55;;;;;;;17.32;48.37;101396.59;5009520;28;20060;-74
2023/06/20 05:33:31;;;;;;;21.70;11.30;;;;;;;17.28;48.30;101402.16;5004282;28;20094;-77
2023/06/20 05:35:59;;;;;;;19.98;11.75;;;;;;;17.32;48.13;101404.50;5005132;28;20501;-75
2023/06/20 05:38:25;;;;;;;17.75;11.88;;;;;;;17.39;48.14;101405.84;5004187;28;20136;-78
2023/06/20 05:40:54;;;;;;;18.08;11.57;;;;;;;17.48;48.11;101407.09;5007186;28;20029;-75
2023/06/20 05:43:20;;;;;;;17.80;12.00;;;;;;;17.64;48.18;101399.94;5018467;28;20041;-80
2023/06/20 05:45:46;;;;;;;14.00;10.15;;;;;;;17.60;48.06;101401.09;5008148;28;20034;-76
2023/06/20 05:48:12;;;;;;;21.30;12.05;;;;;;;17.51;48.41;101403.41;5003614;28;20152;-76
2023/06/20 05:50:38;;;;;;;15.98;11.18;;;;;;;17.49;48.49;101407.94;4994850;28;20163;-75
2023/06/20 05:53:04;;;;;;;18.85;12.45;;;;;;;17.50;48.62;101402.59;4992045;28;20056;-76
2023/06/20 05:55:29;;;;;;;19.42;12.27;;;;;;;17.70;49.00;101405.81;5005988;28;20038;-78
2023/06/20 05:57:55;;;;;;;22.85;11.90;;;;;;;17.83;48.63;101404.09;5002912;28;20556;-75
2023/06/20 06:00:21;;;;;;;15.73;11.00;;;;;;;17.85;48.54;101397.75;4992429;28;20947;-75
2023/06/20 06:02:47;;;;;;;16.42;11.63;;;;;;;18.04;47.81;101413.31;4982909;28;20053;-78
2023/06/20 06:05:12;;;;;;;17.67;10.77;;;;;;;18.93;47.00;101400.59;4992062;28;20580;-75
2023/06/20 06:07:38;;;;;;;15.27;10.07;;;;;;;19.62;44.54;101404.66;5008091;28;20037;-75
2023/06/20 06:10:08;;;;;;;17.83;10.98;;;;;;;20.22;41.77;101402.22;5019559;28;20529;-78
2023/06/20 06:12:38;;;;;;;17.05;10.85;;;;;;;20.98;40.30;101403.66;4997085;28;20049;-76
2023/06/20 06:15:04;;;;;;;14.20;9.70;;;;;;;21.87;39.38;101398.53;5019497;28;20026;-76
2023/06/20 06:17:30;;;;;;;13.90;9.57;;;;;;;22.59;37.99;101400.69;4988145;28;20041;-75
2023/06/20 06:19:57;;;;;;;12.60;10.27;;;;;;;23.37;35.40;101388.75;5019622;28;20064;-78
2023/06/20 06:22:23;;;;;;;12.88;9.10;;;;;;;24.28;33.58;101385.25;5001053;28;20145;-76
2023/06/20 06:24:48;;;;;;;13.00;9.18;;;;;;;24.87;33.55;101378.91;4992665;28;20033;-77
2023/06/20 06:27:14;;;;;;;11.02;7.03;;;;;;;25.01;32.01;101383.00;4993432;28;20095;-76
2023/06/20 06:29:40;;;;;;;12.75;8.23;;;;;;;24.58;32.42;101382.47;4997777;28;20045;-75
2023/06/20 06:32:07;;;;;;;10.75;7.82;;;;;;;24.55;32.96;101376.56;5017029;28;20057;-76
2023/06/20 06:34:33;;;;;;;11.23;7.32;;;;;;;25.26;32.12;101377.03;4987990;28;20036;-75
2023/06/20 06:36:59;;;;;;;13.10;8.35;;;;;;;25.79;31.06;101377.38;4999760;28;20048;-77
2023/06/20 06:39:26;;;;;;;11.43;8.38;;;;;;;25.47;31.71;101386.66;5003111;28;20033;-77
2023/06/20 06:41:51;;;;;;;14.73;7.03;;;;;;;24.90;31.98;101381.28;4990867;28;20590;-77
2023/06/20 06:44:18;;;;;;;8.38;6.13;;;;;;;24.30;33.30;101377.94;5006825;28;20091;-76
2023/06/20 06:46:45;;;;;;;11.52;5.70;;;;;;;24.23;32.43;101377.66;4994463;28;20294;-75
2023/06/20 06:49:10;;;;;;;6.88;4.90;;;;;;;24.42;32.05;101380.38;5006329;28;20559;-74
2023/06/20 06:51:38;;;;;;;5.90;4.13;;;;;;;24.48;31.21;101381.66;4989536;28;20040;-75
2023/06/20 06:54:03;;;;;;;5.75;4.47;;;;;;;24.56;31.32;101387.09;5006344;28;20056;-76
2023/06/20 06:56:29;;;;;;;5.93;4.22;;;;;;;23.69;31.92;101392.25;4991926;28;20030;-74
2023/06/20 06:58:57;;;;;;;7.93;5.07;;;;;;;23.85;32.03;101389.06;5012915;28;20033;-76
2023/06/20 07:01:24;;;;;;;9.77;5.60;;;;;;;24.61;31.13;101389.34;5006015;28;20033;-76
2023/06/20 07:03:49;;;;;;;7.65;5.03;;;;;;;24.07;32.17;101394.22;4990872;28;20029;-75
2023/06/20 07:06:15;;;;;;;7.45;6.63;;;;;;;22.62;34.03;101404.91;4995847;28;20204;-74
2023/06/20 07:08:41;;;;;;;5.75;5.05;;;;;;;21.92;35.53;101409.69;4988935;28;20317;-76
2023/06/20 07:11:07;;;;;;;7.45;5.63;;;;;;;21.64;36.13;101403.03;4988573;28;20359;-76
2023/06/20 07:13:32;;;;;;;11.07;5.90;;;;;;;20.91;37.12;101413.06;5010094;28;20048;-78
2023/06/20 07:15:57;;;;;;;8.88;4.15;;;;;;;21.26;36.81;101415.66;4995105;28;20076;-75
2023/06/20 07:18:23;;;;;;;9.82;5.35;;;;;;;20.59;37.83;101426.91;4992144;28;20064;-81
2023/06/20 07:20:48;;;;;;;8.98;6.15;;;;;;;21.11;37.07;101427.47;5010120;28;20669;-78
2023/06/20 07:23:14;;;;;;;8.38;5.75;;;;;;;20.90;37.06;101422.81;4996375;28;20132;-78
2023/06/20 07:25:39;;;;;;;5.28;4.38;;;;;;;21.06;37.43;101419.00;4986014;28;20045;-78
2023/06/20 07:28:06;;;;;;;6.00;4.60;;;;;;;21.06;37.67;101422.50;5002068;28;20172;-77
2023/06/20 07:30:32;;;;;;;7.20;5.68;;;;;;;20.57;38.35;101412.88;5006498;28;20037;-78
2023/06/20 07:32:58;;;;;;;7.90;5.47;;;;;;;20.83;38.11;101413.59;5004671;28;20053;-80
2023/06/20 07:35:23;;;;;;;6.20;5.40;;;;;;;20.97;38.01;101420.56;4997703;28;20078;-79
2023/06/20 07:37:49;;;;;;;9.30;4.90;;;;;;;21.09;37.64;101418.78;5001555;28;20037;-78
2023/06/20 07:40:15;;;;;;;5.28;4.78;;;;;;;21.17;37.05;101405.75;4990465;28;20056;-78
2023/06/20 07:42:40;;;;;;;6.05;4.90;;;;;;;21.12;37.27;101397.28;5001214;28;20055;-78
2023/06/20 07:45:06;;;;;;;8.10;6.13;;;;;;;21.19;37.39;101409.13;4992863;28;20045;-78
2023/06/20 07:47:32;;;;;;;6.93;5.47;;;;;;;21.71;36.28;101413.09;4995390;28;20069;-78
2023/06/20 07:49:57;;;;;;;8.57;5.13;;;;;;;21.62;36.37;101411.13;4995803;28;20312;-78
2023/06/20 07:52:23;;;;;;;8.00;5.45;;;;;;;21.33;36.77;101408.94;5007950;28;20042;-79
2023/06/20 07:54:48;;;;;;;7.40;5.88;;;;;;;21.40;36.77;101416.41;5008475;28;20305;-77
2023/06/20 07:57:14;;;;;;;9.38;6.15;;;;;;;21.51;36.72;101406.69;5021394;28;20053;-77
2023/06/20 07:59:39;;;;;;;7.53;5.50;;;;;;;21.52;37.08;101403.03;4988242;28;20026;-74
2023/06/20 08:02:05;;;;;;;12.23;6.50;;;;;;;21.52;36.63;101388.91;4987507;28;20235;-77
2023/06/20 08:04:31;;;;;;;9.50;6.35;;;;;;;21.75;36.32;101390.56;5003634;28;20161;-76
2023/06/20 08:06:56;;;;;;;10.27;5.95;;;;;;;22.23;35.66;101389.44;5004889;28;20094;-76
2023/06/20 08:09:21;;;;;;;8.90;6.60;;;;;;;22.27;35.80;101372.25;5005951;28;20179;-76
2023/06/20 08:11:47;;;;;;;9.48;6.63;;;;;;;22.36;35.84;101376.81;5003154;28;20039;-75
2023/06/20 08:14:12;;;;;;;7.75;5.93;;;;;;;22.21;35.45;101374.56;5019668;28;20037;-76
2023/06/20 08:16:38;;;;;;;10.38;6.45;;;;;;;22.09;36.47;101371.94;4992806;28;20033;-76
2023/06/20 08:19:04;;;;;;;7.90;6.03;;;;;;;21.48;37.48;101382.13;5006250;28;20038;-76
2023/06/20 08:21:29;;;;;;;7.15;6.25;;;;;;;21.18;38.09;101372.91;5005665;28;20057;-77
2023/06/20 08:23:55;;;;;;;11.50;6.38;;;;;;;20.99;38.22;101373.47;4991078;28;20129;-78
2023/06/20 08:26:20;;;;;;;8.13;5.72;;;;;;;21.20;38.44;101368.31;4998762;28;20040;-76
2023/06/20 08:28:46;;;;;;;9.60;6.47;;;;;;;21.03;38.65;101380.22;4983804;28;20071;-76
2023/06/20 08:31:11;;;;;;;7.78;6.18;;;;;;;20.79;39.36;101372.28;5020205;28;20056;-75
2023/06/20 08:33:37;;;;;;;7.78;5.80;;;;;;;20.66;39.53;101368.88;5000722;28;20045;-76
2023/06/20 08:36:02;;;;;;;8.38;6.15;;;;;;;20.72;39.66;101368.41;5003898;28;20040;-77
2023/06/20 08:38:28;;;;;;;9.18;6.72;;;;;;;20.75;39.65;101362.84;4990358;28;20046;-77
2023/06/20 08:40:53;;;;;;;10.18;6.45;;;;;;;20.92;39.58;101370.41;5006773;28;20041;-76
2023/06/20 08:43:19;;;;;;;6.53;5.78;;;;;;;21.13;39.31;101372.38;4995621;28;20041;-76
2023/06/20 08:45:45;;;;;;;10.18;7.15;;;;;;;21.17;39.06;101371.19;5007193;28;20517;-76
2023/06/20 08:48:11;;;;;;;10.38;5.30;;;;;;;21.34;39.22;101367.22;5010230;28;20562;-77
2023/06/20 08:50:37;;;;;;;7.70;6.38;;;;;;;21.47;38.71;101361.81;5003518;28;20030;-77
2023/06/20 08:53:05;;;;;;;10.20;6.50;;;;;;;21.62;38.82;101347.28;5018012;28;20160;-77
2023/06/20 08:55:31;;;;;;;19.48;7.18;;;;;;;21.80;38.78;101354.78;4986815;28;20722;-77
2023/06/20 08:57:57;;;;;;;11.18;5.75;;;;;;;21.85;38.58;101353.44;5006939;28;20665;-77
2023/06/20 09:00:23;;;;;;;8.73;5.78;;;;;;;22.03;38.16;101355.59;5003667;28;20037;-77
2023/06/20 09:02:52;;;;;;;9.90;6.78;;;;;;;21.73;39.00;101355.25;5000077;28;20088;-77
2023/06/20 09:05:18;;;;;;;10.50;6.82;;;;;;;21.75;38.38;101347.16;5001718;28;20037;-77
2023/06/20 09:07:44;;;;;;;11.40;6.75;;;;;;;21.74;38.58;101346.31;5002559;28;20038;-77
2023/06/20 09:10:13;;;;;;;10.25;6.68;;;;;;;21.50;39.03;101359.75;5006332;28;20056;-76
2023/06/20 09:12:58;;;;;;;9.40;7.50;;;;;;;21.25;39.37;101344.88;5001538;28;20041;-76
2023/06/20 09:15:26;;;;;;;11.82;6.97;;;;;;;21.69;38.84;101348.53;5001480;28;20679;-77
2023/06/20 09:17:53;;;;;;;7.25;6.40;;;;;;;21.65;39.18;101346.22;5002769;28;20116;-78
2023/06/20 09:20:20;;;;;;;12.10;7.45;;;;;;;21.94;38.92;101347.38;4991647;28;20831;-77
2023/06/20 09:22:45;;;;;;;7.47;6.03;;;;;;;22.27;38.12;101348.28;4997657;28;20778;-77
2023/06/20 09:25:12;;;;;;;11.13;8.57;;;;;;;22.13;38.07;101346.72;5006069;28;20049;-78
2023/06/20 09:27:41;;;;;;;10.45;7.20;;;;;;;21.65;39.40;101336.44;5003142;28;20741;-76
2023/06/20 09:30:08;;;;;;;14.40;8.60;;;;;;;21.02;40.57;101335.16;5001460;28;20087;-76
2023/06/20 09:32:35;;;;;;;11.07;7.93;;;;;;;21.56;39.55;101337.16;4987048;28;20543;-75
2023/06/20 09:35:06;;;;;;;8.73;7.70;;;;;;;21.76;39.06;101339.06;5007358;28;20040;-76
2023/06/20 09:37:41;;;;;;;12.52;8.80;;;;;;;21.62;39.65;101347.28;4997485;28;20069;-75
2023/06/20 09:40:12;;;;;;;10.25;7.38;;;;;;;21.45;40.08;101345.97;5003040;28;20037;-76
2023/06/20 09:42:42;;;;;;;9.65;8.05;;;;;;;21.14;41.19;101348.34;5012714;28;20317;-77
2023/06/20 09:45:09;;;;;;;8.77;7.75;;;;;;;21.16;40.58;101337.63;5008196;28;20048;-76
2023/06/20 09:47:36;;;;;;;13.63;8.68;;;;;;;21.36;40.18;101342.22;5018011;28;20049;-76
2023/06/20 09:50:15;;;;;;;16.30;7.85;;;;;;;21.51;39.96;101334.88;4997952;28;20053;-75
2023/06/20 09:53:03;;;;;;;11.73;7.30;;;;;;;21.39;40.34;101337.63;5011005;28;20381;-76
2023/06/20 09:55:32;;;;;;;12.50;8.10;;;;;;;21.64;40.06;101339.19;5001570;28;20133;-76
2023/06/20 09:57:59;;;;;;;10.93;6.93;;;;;;;21.76;40.25;101336.41;5001144;28;20303;-76
2023/06/20 10:00:26;;;;;;;10.23;7.50;;;;;;;21.62;39.82;101341.13;5001797;28;20033;-76
2023/06/20 10:02:53;;;;;;;12.43;8.07;;;;;;;21.59;40.01;101336.06;5013530;28;20132;-76
2023/06/20 10:05:21;;;;;;;12.20;6.85;;;;;;;21.51;39.96;101340.19;4988169;28;20451;-77
2023/06/20 10:07:48;;;;;;;13.90;8.68;;;;;;;21.79;39.71;101337.13;5002491;28;20111;-76
2023/06/20 10:10:16;;;;;;;12.52;7.53;;;;;;;21.88;39.56;101331.06;5004780;28;20041;-78
2023/06/20 10:12:43;;;;;;;12.43;8.38;;;;;;;21.70;39.83;101334.22;5000167;28;20091;-74
2023/06/20 10:15:10;;;;;;;10.48;7.30;;;;;;;22.13;39.01;101341.41;5008970;28;20059;-75
2023/06/20 10:17:41;;;;;;;10.38;7.80;;;;;;;22.15;38.94;101328.81;5009668;28;21088;-74
2023/06/20 10:20:23;;;;;;;11.50;7.35;;;;;;;22.42;38.61;101330.16;4991573;28;20126;-76
2023/06/20 10:22:49;;;;;;;8.48;7.13;;;;;;;22.27;38.99;101336.75;4999371;28;20063;-75
2023/06/20 10:25:17;;;;;;;8.50;7.20;;;;;;;22.29;39.48;101329.50;5002863;28;20373;-74
2023/06/20 10:27:57;;;;;;;8.15;6.68;;;;;;;22.53;39.12;101329.28;4998022;28;20189;-74
2023/06/20 10:30:46;;;;;;;9.13;7.10;;;;;;;22.41;38.67;101332.97;4982926;28;20514;-76
2023/06/20 10:33:13;;;;;;;8.10;7.30;;;;;;;22.21;39.35;101337.28;4994279;28;20042;-75
2023/06/20 10:35:59;;;;;;;7.38;6.22;;;;;;;22.48;39.03;101323.50;4995044;28;20037;-75
2023/06/20 10:38:29;;;;;;;10.82;6.93;;;;;;;22.67;38.72;101323.63;4985765;28;20044;-75
2023/06/20 10:41:07;;;;;;;11.43;8.20;;;;;;;22.65;38.63;101311.41;5002689;28;20055;-76
2023/06/20 10:43:47;;;;;;;13.00;7.40;;;;;;;22.95;37.71;101314.16;4997944;28;20103;-76
2023/06/20 10:46:12;;;;;;;8.73;7.38;;;;;;;22.88;38.10;101307.66;5000805;28;20180;-77
2023/06/20 10:48:38;;;;;;;16.02;8.50;;;;;;;22.83;37.88;101303.69;4995745;28;20419;-77
2023/06/20 10:51:05;;;;;;;10.15;7.70;;;;;;;22.99;37.75;101304.91;5008771;28;20033;-76
2023/06/20 10:53:31;;;;;;;8.32;7.30;;;;;;;22.86;38.65;101300.78;4996086;28;20045;-77
2023/06/20 10:55:56;;;;;;;11.27;6.95;;;;;;;23.03;38.52;101297.50;5000381;28;20034;-77
2023/06/20 10:58:22;;;;;;;12.43;7.78;;;;;;;23.01;38.07;101288.78;4985161;28;20558;-77
2023/06/20 11:00:54;;;;;;;10.80;6.97;;;;;;;22.93;37.89;101294.78;5000876;28;20034;-76
2023/06/20 11:03:21;;;;;;;8.45;5.97;;;;;;;22.92;37.85;101286.94;5000509;28;20041;-77
2023/06/20 11:05:51;;;;;;;6.90;6.00;;;;;;;23.09;37.98;101290.78;4993879;28;20029;-76
2023/06/20 11:08:27;;;;;;;11.80;6.22;;;;;;;23.18;37.94;101288.16;5002890;28;20124;-76
2023/06/20 11:10:54;;;;;;;7.20;6.15;;;;;;;23.05;38.26;101279.53;5001274;28;20034;-77
2023/06/20 11:13:20;;;;;;;7.88;6.90;;;;;;;23.34;37.94;101279.69;4997165;28;20038;-77
2023/06/20 11:15:46;;;;;;;9.98;8.05;;;;;;;23.35;36.96;101276.03;5003233;28;20049;-75
2023/06/20 11:18:12;;;;;;;11.07;7.63;;;;;;;23.11;37.95;101280.81;5003546;28;20064;-77
2023/06/20 11:20:39;;;;;;;8.52;5.88;;;;;;;23.18;37.98;101279.31;5006696;28;20239;-77
2023/06/20 11:23:12;;;;;;;10.95;7.18;;;;;;;23.17;38.16;101277.63;4986739;28;20792;-77
2023/06/20 11:25:40;;;;;;;10.02;6.50;;;;;;;23.18;37.46;101284.63;4997935;28;20039;-77
2023/06/20 11:28:07;;;;;;;11.38;7.35;;;;;;;22.52;38.50;101272.50;5002433;28;20046;-76
2023/06/20 11:30:35;;;;;;;14.48;7.32;;;;;;;22.71;38.60;101270.94;4980934;28;20021;-77
2023/06/20 11:33:03;;;;;;;12.13;6.70;;;;;;;22.65;39.04;101264.31;5017559;28;20041;-78
2023/06/20 11:35:52;;;;;;;8.07;6.55;;;;;;;22.68;37.96;101264.06;4997138;28;20602;-77
2023/06/20 11:38:22;;;;;;;6.95;5.57;;;;;;;22.52;38.04;101272.50;4991735;28;20034;-76
2023/06/20 11:41:03;;;;;;;9.17;6.20;;;;;;;22.82;37.47;101270.88;4998188;28;20033;-76
2023/06/20 11:43:42;;;;;;;7.90;5.30;;;;;;;23.28;37.59;101258.91;4983841;28;20148;-77
2023/06/20 11:46:09;;;;;;;6.78;5.63;;;;;;;23.79;36.71;101257.88;5002495;28;20464;-77
2023/06/20 11:48:35;;;;;;;7.75;5.35;;;;;;;24.28;35.45;101251.69;4996359;28;20207;-78
2023/06/20 11:51:05;;;;;;;10.82;5.38;;;;;;;25.00;35.06;101253.81;4999679;28;20034;-77
2023/06/20 11:53:34;;;;;;;8.48;6.07;;;;;;;25.01;34.20;101241.28;4998209;28;20037;-76
2023/06/20 11:56:03;;;;;;;6.72;5.95;;;;;;;24.75;34.43;101243.72;5004950;28;20030;-77
2023/06/20 11:58:39;;;;;;;8.85;5.53;;;;;;;24.81;34.87;101243.16;4984923;28;20048;-77
2023/06/20 12:01:15;;;;;;;9.25;5.93;;;;;;;24.57;34.72;101249.88;5000912;28;20026;-74
2023/06/20 12:03:42;;;;;;;7.25;5.30;;;;;;;24.47;34.77;101250.88;4998436;28;20041;-76
2023/06/20 12:06:27;;;;;;;9.48;5.85;;;;;;;24.23;35.20;101252.13;5004476;28;20806;-76
2023/06/20 12:08:54;;;;;;;6.10;5.05;;;;;;;23.82;36.22;101262.91;4982866;28;20128;-77
2023/06/20 12:11:20;;;;;;;8.77;6.00;;;;;;;23.91;35.73;101247.09;5001261;28;20021;-76
2023/06/20 12:13:47;;;;;;;6.88;5.32;;;;;;;24.13;35.97;101237.97;4997122;28;20103;-77
2023/06/20 12:16:13;;;;;;;6.78;5.45;;;;;;;24.26;36.23;101238.50;5008417;28;20043;-76
2023/06/20 12:18:39;;;;;;;8.57;7.20;;;;;;;23.92;36.53;101236.25;5001414;28;20045;-76
2023/06/20 12:21:05;;;;;;;9.90;7.13;;;;;;;23.83;36.73;101237.94;5006431;28;20586;-76
2023/06/20 12:23:30;;;;;;;7.10;6.32;;;;;;;24.03;36.87;101243.28;4982985;28;20041;-76
2023/06/20 12:25:57;;;;;;;9.88;8.68;;;;;;;24.03;37.18;101240.63;5001551;28;20082;-76
2023/06/20 12:28:23;;;;;;;10.57;7.90;;;;;;;23.96;37.10;101234.16;5001265;28;20559;-76
2023/06/20 12:30:48;;;;;;;10.75;7.22;;;;;;;23.80;37.86;101242.69;4984855;28;20074;-76
2023/06/20 12:33:14;;;;;;;13.13;8.45;;;;;;;23.52;38.09;101239.00;4989365;28;20112;-76
2023/06/20 12:35:39;;;;;;;15.10;8.35;;;;;;;23.16;38.56;101234.13;5004548;28;20538;-77
2023/06/20 12:38:05;;;;;;;12.25;9.35;;;;;;;23.04;39.17;101237.03;5003557;28;20724;-76
2023/06/20 12:40:31;;;;;;;10.98;8.35;;;;;;;22.96;39.50;101243.03;4989918;28;20045;-77
2023/06/20 12:42:56;;;;;;;9.95;7.85;;;;;;;23.14;39.34;101227.22;4999361;28;20041;-75
2023/06/20 12:45:21;;;;;;;9.27;7.78;;;;;;;23.14;39.06;101230.75;4987083;28;20033;-76
2023/06/20 12:47:47;;;;;;;10.23;8.57;;;;;;;22.63;39.58;101220.09;5008556;28;20045;-74
2023/06/20 12:50:20;;;;;;;11.15;8.07;;;;;;;22.57;40.35;101226.81;5005449;28;20124;-75
2023/06/20 12:55:36;;;;;;;9.50;7.47;;;;;;;23.06;39.42;101222.59;5009471;28;20053;-77
2023/06/20 12:58:01;;;;;;;10.05;8.77;;;;;;;23.46;38.61;101218.25;4980494;28;20049;-75
2023/06/20 13:00:30;;;;;;;10.07;8.05;;;;;;;23.81;38.44;101223.88;4998097;28;20037;-77
2023/06/20 13:02:56;;;;;;;8.68;7.72;;;;;;;23.82;38.58;101230.06;5004565;28;20045;-78
2023/06/20 13:05:22;;;;;;;13.13;8.25;;;;;;;23.60;38.42;101225.81;4959607;28;20359;-76
2023/06/20 13:07:48;;;;;;;13.00;8.60;;;;;;;23.98;37.85;101216.19;4962377;28;20899;-76
2023/06/20 13:10:20;;;;;;;9.43;8.43;;;;;;;23.94;38.21;101217.44;4989196;28;20041;-74
2023/06/20 13:12:46;;;;;;;8.52;7.53;;;;;;;24.60;37.37;101214.81;5003981;28;20514;-75
2023/06/20 13:15:14;;;;;;;8.60;7.55;;;;;;;25.00;36.28;101205.69;4976381;28;20050;-76
2023/06/20 13:17:41;;;;;;;9.73;7.65;;;;;;;25.22;35.14;101203.59;4986590;28;20045;-77
2023/06/20 13:20:07;;;;;;;12.00;7.18;;;;;;;25.19;35.48;101210.06;4989685;28;20038;-76
2023/06/20 13:22:33;;;;;;;9.93;7.38;;;;;;;24.74;36.52;101207.31;4979502;28;20639;-76
2023/06/20 13:24:59;;;;;;;7.90;7.20;;;;;;;25.04;36.22;101211.59;4986053;28;20041;-77
2023/06/20 13:27:26;;;;;;;8.98;6.53;;;;;;;24.81;36.00;101205.75;4985489;28;20045;-76
2023/06/20 13:30:00;;;;;;;10.57;8.27;;;;;;;24.71;36.20;101207.63;4990399;28;20137;-76
2023/06/20 13:32:26;;;;;;;13.02;8.60;;;;;;;24.64;36.35;101202.84;4987900;28;20068;-76
2023/06/20 13:34:53;;;;;;;13.55;7.13;;;;;;;25.12;35.56;101192.94;4973763;28;20037;-77
2023/06/20 13:37:22;;;;;;;7.53;6.78;;;;;;;25.57;35.15;101207.31;4977329;28;20046;-77
2023/06/20 13:39:48;;;;;;;8.57;6.25;;;;;;;25.53;35.22;101205.94;4986734;28;20032;-77
2023/06/20 13:42:14;;;;;;;10.15;6.57;;;;;;;25.57;35.40;101210.00;4988739;28;20100;-75
2023/06/20 13:44:42;;;;;;;9.07;7.35;;;;;;;24.94;35.72;101203.56;5011224;28;20140;-76
2023/06/20 13:47:11;;;;;;;8.23;6.88;;;;;;;24.76;35.87;101203.50;4976629;28;20045;-76
2023/06/20 13:49:37;;;;;;;6.15;5.63;;;;;;;24.89;35.24;101195.16;4984998;28;20928;-77
2023/06/20 13:52:03;;;;;;;8.20;5.65;;;;;;;24.64;35.46;101188.66;4979851;28;20049;-76
2023/06/20 13:54:28;;;;;;;6.90;6.20;;;;;;;24.57;35.14;101188.41;5000339;28;20048;-74
2023/06/20 13:56:54;;;;;;;9.32;5.68;;;;;;;24.56;35.92;101192.03;4974622;28;20047;-77
2023/06/20 13:59:23;;;;;;;6.38;5.78;;;;;;;24.61;35.69;101184.44;4985626;28;20038;-77
2023/06/20 14:01:53;;;;;;;8.30;6.13;;;;;;;24.84;35.20;101184.06;4983373;28;20638;-76
2023/06/20 14:04:19;;;;;;;5.82;5.32;;;;;;;24.71;35.82;101179.06;4962541;28;20033;-77
2023/06/20 14:06:45;;;;;;;12.75;6.30;;;;;;;24.72;35.72;101169.22;4995507;28;20088;-76
2023/06/20 14:09:11;;;;;;;6.82;5.30;;;;;;;24.92;36.33;101167.28;4993860;28;20075;-78
2023/06/20 14:11:37;;;;;;;8.25;6.05;;;;;;;24.44;36.38;101161.16;5005459;28;20040;-77
2023/06/20 14:14:03;;;;;;;6.72;6.03;;;;;;;24.47;36.21;101165.38;4975523;28;20039;-78
2023/06/20 14:16:29;;;;;;;7.22;5.63;;;;;;;24.70;35.24;101155.16;4975136;28;20112;-77
2023/06/20 14:18:55;;;;;;;6.30;5.70;;;;;;;24.69;35.81;101153.47;4980863;28;20042;-77
2023/06/20 14:21:21;;;;;;;10.00;6.68;;;;;;;24.82;35.60;101149.47;4999798;28;20041;-76
2023/06/20 14:23:48;;;;;;;11.20;6.82;;;;;;;24.61;35.98;101147.00;4988447;28;20081;-78
2023/06/20 14:26:15;;;;;;;6.78;6.22;;;;;;;24.60;36.11;101144.50;4993187;28;20281;-77
2023/06/20 14:28:45;;;;;;;6.15;5.55;;;;;;;24.75;35.71;101137.69;4995400;28;20278;-77
2023/06/20 14:31:12;;;;;;;8.98;7.20;;;;;;;24.81;35.29;101128.22;4993682;28;22838;-77
2023/06/20 14:33:40;;;;;;;10.63;6.40;;;;;;;24.89;35.46;101112.28;4992820;28;20041;-77
2023/06/20 14:36:06;;;;;;;7.70;5.97;;;;;;;24.88;35.49;101115.94;5023709;28;20021;-77
2023/06/20 14:38:32;;;;;;;7.90;5.88;;;;;;;25.16;35.19;101103.41;5019026;28;20058;-77
2023/06/20 14:40:58;;;;;;;6.97;5.88;;;;;;;25.12;34.79;101101.19;5032681;28;20021;-77
2023/06/20 14:43:23;;;;;;;7.63;5.57;;;;;;;24.69;35.25;101089.34;4997198;28;20033;-75
2023/06/20 14:45:50;;;;;;;7.70;6.30;;;;;;;24.41;36.07;101094.63;4984736;28;20030;-74
2023/06/20 14:48:16;;;;;;;6.50;5.75;;;;;;;24.31;36.32;101086.66;4985893;28;20045;-76
2023/06/20 14:50:41;;;;;;;6.90;6.22;;;;;;;24.55;35.64;101090.66;4973243;28;20572;-76
2023/06/20 14:53:07;;;;;;;6.95;6.35;;;;;;;24.36;36.09;101088.91;4986569;28;20053;-77
2023/06/20 14:55:33;;;;;;;8.85;6.50;;;;;;;24.57;35.55;101081.53;4980381;28;20034;-78
2023/06/20 14:57:59;;;;;;;7.13;5.97;;;;;;;24.93;35.12;101081.59;5016616;28;20045;-77
2023/06/20 15:00:26;;;;;;;6.38;5.85;;;;;;;25.15;35.25;101071.44;4973164;28;20038;-76
2023/06/20 15:02:51;;;;;;;6.75;5.70;;;;;;;26.19;33.85;101062.72;4985765;28;20550;-75